sensor_id;sensor_type;location;lat;lon;timestamp;P1;durP1;ratioP1;P2;durP2;ratioP2
11847;SDS011;5983;49.966;8.052;2022-08-24T00:01:22;4.67;;;2.27;;
11847;SDS011;5983;49.966;8.052;2022-08-24T00:03:52;4.30;;;2.70;;
11847;SDS011;5983;49.966;8.052;2022-08-24T00:06:22;3.00;;;2.37;;
11847;SDS011;5983;49.966;8.052;2022-08-24T00:08:51;6.07;;;2.87;;
11847;SDS011;5983;49.966;8.052;2022-08-24T00:11:20;5.83;;;2.60;;
11847;SDS011;5983;49.966;8.052;2022-08-24T00:13:48;4.13;;;2.77;;
11847;SDS011;5983;49.966;8.052;2022-08-24T00:16:16;3.37;;;2.10;;
11847;SDS011;5983;49.966;8.052;2022-08-24T00:18:44;5.03;;;2.70;;
11847;SDS011;5983;49.966;8.052;2022-08-24T00:21:13;3.43;;;1.97;;
11847;SDS011;5983;49.966;8.052;2022-08-24T00:23:41;3.00;;;2.40;;
11847;SDS011;5983;49.966;8.052;2022-08-24T00:26:08;4.13;;;2.73;;
11847;SDS011;5983;49.966;8.052;2022-08-24T00:28:35;4.50;;;2.53;;
11847;SDS011;5983;49.966;8.052;2022-08-24T00:31:03;3.77;;;2.40;;
11847;SDS011;5983;49.966;8.052;2022-08-24T00:33:30;4.60;;;2.57;;
11847;SDS011;5983;49.966;8.052;2022-08-24T00:35:57;3.27;;;2.40;;
11847;SDS011;5983;49.966;8.052;2022-08-24T00:38:25;5.30;;;2.93;;
11847;SDS011;5983;49.966;8.052;2022-08-24T00:40:52;7.60;;;2.93;;
11847;SDS011;5983;49.966;8.052;2022-08-24T00:43:20;3.77;;;2.50;;
11847;SDS011;5983;49.966;8.052;2022-08-24T00:46:00;3.03;;;2.17;;
11847;SDS011;5983;49.966;8.052;2022-08-24T00:48:40;4.23;;;2.43;;
11847;SDS011;5983;49.966;8.052;2022-08-24T00:51:12;3.83;;;2.23;;
11847;SDS011;5983;49.966;8.052;2022-08-24T00:53:46;3.03;;;2.43;;
11847;SDS011;5983;49.966;8.052;2022-08-24T00:56:19;4.10;;;2.57;;
11847;SDS011;5983;49.966;8.052;2022-08-24T00:58:54;7.43;;;2.77;;
11847;SDS011;5983;49.966;8.052;2022-08-24T01:01:26;5.50;;;2.70;;
11847;SDS011;5983;49.966;8.052;2022-08-24T01:03:57;6.93;;;2.70;;
11847;SDS011;5983;49.966;8.052;2022-08-24T01:06:25;6.77;;;2.50;;
11847;SDS011;5983;49.966;8.052;2022-08-24T01:08:54;5.00;;;2.60;;
11847;SDS011;5983;49.966;8.052;2022-08-24T01:11:22;4.13;;;2.70;;
11847;SDS011;5983;49.966;8.052;2022-08-24T01:13:53;9.60;;;3.17;;
11847;SDS011;5983;49.966;8.052;2022-08-24T01:16:22;3.27;;;2.60;;
11847;SDS011;5983;49.966;8.052;2022-08-24T01:19:03;5.70;;;2.80;;
11847;SDS011;5983;49.966;8.052;2022-08-24T01:21:42;6.43;;;3.00;;
11847;SDS011;5983;49.966;8.052;2022-08-24T01:24:25;4.43;;;3.03;;
11847;SDS011;5983;49.966;8.052;2022-08-24T01:26:52;5.20;;;2.70;;
11847;SDS011;5983;49.966;8.052;2022-08-24T01:29:21;4.43;;;3.10;;
11847;SDS011;5983;49.966;8.052;2022-08-24T01:31:51;4.90;;;2.70;;
11847;SDS011;5983;49.966;8.052;2022-08-24T01:34:18;5.77;;;2.77;;
11847;SDS011;5983;49.966;8.052;2022-08-24T01:36:47;7.13;;;3.00;;
11847;SDS011;5983;49.966;8.052;2022-08-24T01:39:21;5.23;;;2.57;;
11847;SDS011;5983;49.966;8.052;2022-08-24T01:41:54;4.80;;;3.07;;
11847;SDS011;5983;49.966;8.052;2022-08-24T01:44:24;11.43;;;2.73;;
11847;SDS011;5983;49.966;8.052;2022-08-24T01:46:54;5.37;;;3.13;;
11847;SDS011;5983;49.966;8.052;2022-08-24T01:49:24;8.47;;;3.17;;
11847;SDS011;5983;49.966;8.052;2022-08-24T01:51:53;5.53;;;3.53;;
11847;SDS011;5983;49.966;8.052;2022-08-24T01:54:21;4.03;;;2.57;;
11847;SDS011;5983;49.966;8.052;2022-08-24T01:56:51;8.17;;;2.93;;
11847;SDS011;5983;49.966;8.052;2022-08-24T01:59:18;4.47;;;2.57;;
11847;SDS011;5983;49.966;8.052;2022-08-24T02:01:47;7.00;;;3.03;;
11847;SDS011;5983;49.966;8.052;2022-08-24T02:04:27;6.37;;;2.33;;
11847;SDS011;5983;49.966;8.052;2022-08-24T02:06:54;3.33;;;2.57;;
11847;SDS011;5983;49.966;8.052;2022-08-24T02:09:23;3.43;;;2.63;;
11847;SDS011;5983;49.966;8.052;2022-08-24T02:11:51;3.50;;;2.87;;
11847;SDS011;5983;49.966;8.052;2022-08-24T02:14:19;2.83;;;2.43;;
11847;SDS011;5983;49.966;8.052;2022-08-24T02:16:46;2.93;;;2.70;;
11847;SDS011;5983;49.966;8.052;2022-08-24T02:19:13;8.17;;;3.07;;
11847;SDS011;5983;49.966;8.052;2022-08-24T02:21:40;3.47;;;2.80;;
11847;SDS011;5983;49.966;8.052;2022-08-24T02:24:07;4.63;;;2.70;;
11847;SDS011;5983;49.966;8.052;2022-08-24T02:26:34;3.33;;;2.77;;
11847;SDS011;5983;49.966;8.052;2022-08-24T02:29:03;4.87;;;3.07;;
11847;SDS011;5983;49.966;8.052;2022-08-24T02:31:30;4.70;;;2.40;;
11847;SDS011;5983;49.966;8.052;2022-08-24T02:33:58;6.27;;;2.80;;
11847;SDS011;5983;49.966;8.052;2022-08-24T02:36:25;6.83;;;2.70;;
11847;SDS011;5983;49.966;8.052;2022-08-24T02:38:52;4.40;;;2.70;;
11847;SDS011;5983;49.966;8.052;2022-08-24T02:41:20;4.53;;;2.97;;
11847;SDS011;5983;49.966;8.052;2022-08-24T02:43:49;6.23;;;2.80;;
11847;SDS011;5983;49.966;8.052;2022-08-24T02:46:18;6.10;;;2.97;;
11847;SDS011;5983;49.966;8.052;2022-08-24T02:48:47;5.07;;;3.20;;
11847;SDS011;5983;49.966;8.052;2022-08-24T02:51:18;5.13;;;2.93;;
11847;SDS011;5983;49.966;8.052;2022-08-24T02:53:48;5.47;;;2.93;;
11847;SDS011;5983;49.966;8.052;2022-08-24T02:56:16;4.77;;;3.17;;
11847;SDS011;5983;49.966;8.052;2022-08-24T02:58:44;4.17;;;2.50;;
11847;SDS011;5983;49.966;8.052;2022-08-24T03:01:12;3.50;;;2.73;;
11847;SDS011;5983;49.966;8.052;2022-08-24T03:03:42;3.10;;;2.73;;
11847;SDS011;5983;49.966;8.052;2022-08-24T03:06:10;4.57;;;2.63;;
11847;SDS011;5983;49.966;8.052;2022-08-24T03:08:38;4.60;;;2.97;;
11847;SDS011;5983;49.966;8.052;2022-08-24T03:11:05;3.90;;;2.93;;
11847;SDS011;5983;49.966;8.052;2022-08-24T03:13:33;3.00;;;2.63;;
11847;SDS011;5983;49.966;8.052;2022-08-24T03:16:02;4.23;;;2.93;;
11847;SDS011;5983;49.966;8.052;2022-08-24T03:18:30;3.53;;;2.60;;
11847;SDS011;5983;49.966;8.052;2022-08-24T03:21:00;3.60;;;2.70;;
11847;SDS011;5983;49.966;8.052;2022-08-24T03:23:28;7.33;;;2.80;;
11847;SDS011;5983;49.966;8.052;2022-08-24T03:25:55;9.53;;;3.27;;
11847;SDS011;5983;49.966;8.052;2022-08-24T03:28:23;8.30;;;2.80;;
11847;SDS011;5983;49.966;8.052;2022-08-24T03:30:50;6.37;;;3.03;;
11847;SDS011;5983;49.966;8.052;2022-08-24T03:33:17;7.00;;;2.37;;
11847;SDS011;5983;49.966;8.052;2022-08-24T03:35:45;3.87;;;2.83;;
11847;SDS011;5983;49.966;8.052;2022-08-24T03:38:14;4.00;;;3.00;;
11847;SDS011;5983;49.966;8.052;2022-08-24T03:40:42;7.43;;;3.00;;
11847;SDS011;5983;49.966;8.052;2022-08-24T03:43:09;3.30;;;2.60;;
11847;SDS011;5983;49.966;8.052;2022-08-24T03:45:57;6.10;;;2.80;;
11847;SDS011;5983;49.966;8.052;2022-08-24T03:48:26;4.47;;;3.20;;
11847;SDS011;5983;49.966;8.052;2022-08-24T03:50:54;6.20;;;2.87;;
11847;SDS011;5983;49.966;8.052;2022-08-24T03:53:23;5.93;;;3.03;;
11847;SDS011;5983;49.966;8.052;2022-08-24T03:55:50;4.90;;;2.97;;
11847;SDS011;5983;49.966;8.052;2022-08-24T03:58:17;4.83;;;2.47;;
11847;SDS011;5983;49.966;8.052;2022-08-24T04:00:44;3.73;;;2.67;;
11847;SDS011;5983;49.966;8.052;2022-08-24T04:03:11;3.93;;;2.87;;
11847;SDS011;5983;49.966;8.052;2022-08-24T04:05:38;5.27;;;2.80;;
11847;SDS011;5983;49.966;8.052;2022-08-24T04:08:06;5.37;;;2.80;;
11847;SDS011;5983;49.966;8.052;2022-08-24T04:10:36;3.33;;;2.83;;
11847;SDS011;5983;49.966;8.052;2022-08-24T04:13:03;4.47;;;3.03;;
11847;SDS011;5983;49.966;8.052;2022-08-24T04:15:32;3.53;;;2.57;;
11847;SDS011;5983;49.966;8.052;2022-08-24T04:18:05;4.03;;;2.67;;
11847;SDS011;5983;49.966;8.052;2022-08-24T04:20:35;4.33;;;2.60;;
11847;SDS011;5983;49.966;8.052;2022-08-24T04:23:04;3.13;;;2.43;;
11847;SDS011;5983;49.966;8.052;2022-08-24T04:25:39;5.33;;;3.10;;
11847;SDS011;5983;49.966;8.052;2022-08-24T04:28:08;7.33;;;2.43;;
11847;SDS011;5983;49.966;8.052;2022-08-24T04:30:41;4.90;;;3.27;;
11847;SDS011;5983;49.966;8.052;2022-08-24T04:33:10;3.47;;;2.93;;
11847;SDS011;5983;49.966;8.052;2022-08-24T04:35:39;3.73;;;2.83;;
11847;SDS011;5983;49.966;8.052;2022-08-24T04:38:10;4.83;;;3.10;;
11847;SDS011;5983;49.966;8.052;2022-08-24T04:40:39;3.93;;;3.10;;
11847;SDS011;5983;49.966;8.052;2022-08-24T04:43:09;8.00;;;2.63;;
11847;SDS011;5983;49.966;8.052;2022-08-24T04:45:38;4.17;;;3.30;;
11847;SDS011;5983;49.966;8.052;2022-08-24T04:48:07;4.23;;;2.80;;
11847;SDS011;5983;49.966;8.052;2022-08-24T04:50:36;4.00;;;3.00;;
11847;SDS011;5983;49.966;8.052;2022-08-24T04:53:06;6.60;;;3.13;;
11847;SDS011;5983;49.966;8.052;2022-08-24T04:55:41;10.37;;;3.00;;
11847;SDS011;5983;49.966;8.052;2022-08-24T04:58:10;6.83;;;3.30;;
11847;SDS011;5983;49.966;8.052;2022-08-24T05:00:39;5.00;;;2.87;;
11847;SDS011;5983;49.966;8.052;2022-08-24T05:03:06;3.93;;;3.03;;
11847;SDS011;5983;49.966;8.052;2022-08-24T05:05:38;9.37;;;2.90;;
11847;SDS011;5983;49.966;8.052;2022-08-24T05:08:05;7.27;;;2.60;;
11847;SDS011;5983;49.966;8.052;2022-08-24T05:10:33;4.47;;;2.40;;
11847;SDS011;5983;49.966;8.052;2022-08-24T05:13:01;8.30;;;3.17;;
11847;SDS011;5983;49.966;8.052;2022-08-24T05:15:28;7.03;;;2.83;;
11847;SDS011;5983;49.966;8.052;2022-08-24T05:17:55;9.23;;;3.10;;
11847;SDS011;5983;49.966;8.052;2022-08-24T05:20:22;4.37;;;2.50;;
11847;SDS011;5983;49.966;8.052;2022-08-24T05:22:50;9.17;;;3.20;;
11847;SDS011;5983;49.966;8.052;2022-08-24T05:25:17;7.87;;;2.40;;
11847;SDS011;5983;49.966;8.052;2022-08-24T05:27:44;3.60;;;2.23;;
11847;SDS011;5983;49.966;8.052;2022-08-24T05:30:13;6.03;;;2.57;;
11847;SDS011;5983;49.966;8.052;2022-08-24T05:32:40;5.63;;;2.87;;
11847;SDS011;5983;49.966;8.052;2022-08-24T05:35:07;6.57;;;3.33;;
11847;SDS011;5983;49.966;8.052;2022-08-24T05:37:35;5.40;;;2.60;;
11847;SDS011;5983;49.966;8.052;2022-08-24T05:40:04;4.20;;;2.47;;
11847;SDS011;5983;49.966;8.052;2022-08-24T05:42:35;3.10;;;2.73;;
11847;SDS011;5983;49.966;8.052;2022-08-24T05:45:03;5.77;;;3.23;;
11847;SDS011;5983;49.966;8.052;2022-08-24T05:47:33;6.60;;;3.17;;
11847;SDS011;5983;49.966;8.052;2022-08-24T05:50:02;3.60;;;2.40;;
11847;SDS011;5983;49.966;8.052;2022-08-24T05:52:32;4.17;;;3.00;;
11847;SDS011;5983;49.966;8.052;2022-08-24T05:55:00;6.70;;;2.97;;
11847;SDS011;5983;49.966;8.052;2022-08-24T05:57:30;5.13;;;2.50;;
11847;SDS011;5983;49.966;8.052;2022-08-24T05:59:59;4.43;;;2.87;;
11847;SDS011;5983;49.966;8.052;2022-08-24T06:02:26;5.03;;;2.63;;
11847;SDS011;5983;49.966;8.052;2022-08-24T06:04:55;9.80;;;3.10;;
11847;SDS011;5983;49.966;8.052;2022-08-24T06:07:22;6.83;;;3.07;;
11847;SDS011;5983;49.966;8.052;2022-08-24T06:09:49;5.37;;;2.73;;
11847;SDS011;5983;49.966;8.052;2022-08-24T06:12:18;8.30;;;2.87;;
11847;SDS011;5983;49.966;8.052;2022-08-24T06:14:44;5.20;;;3.03;;
11847;SDS011;5983;49.966;8.052;2022-08-24T06:17:12;9.47;;;4.67;;
11847;SDS011;5983;49.966;8.052;2022-08-24T06:19:39;16.17;;;8.67;;
11847;SDS011;5983;49.966;8.052;2022-08-24T06:22:09;17.57;;;8.70;;
11847;SDS011;5983;49.966;8.052;2022-08-24T06:24:36;11.23;;;4.13;;
11847;SDS011;5983;49.966;8.052;2022-08-24T06:27:21;9.73;;;4.27;;
11847;SDS011;5983;49.966;8.052;2022-08-24T06:29:50;6.63;;;3.17;;
11847;SDS011;5983;49.966;8.052;2022-08-24T06:32:20;4.07;;;2.97;;
11847;SDS011;5983;49.966;8.052;2022-08-24T06:34:48;8.50;;;3.77;;
11847;SDS011;5983;49.966;8.052;2022-08-24T06:37:16;6.57;;;2.73;;
11847;SDS011;5983;49.966;8.052;2022-08-24T06:39:43;4.57;;;2.93;;
11847;SDS011;5983;49.966;8.052;2022-08-24T06:42:10;7.20;;;2.77;;
11847;SDS011;5983;49.966;8.052;2022-08-24T06:44:37;6.23;;;2.57;;
11847;SDS011;5983;49.966;8.052;2022-08-24T06:47:04;9.87;;;2.90;;
11847;SDS011;5983;49.966;8.052;2022-08-24T06:49:31;5.60;;;2.77;;
11847;SDS011;5983;49.966;8.052;2022-08-24T06:51:58;8.67;;;3.00;;
11847;SDS011;5983;49.966;8.052;2022-08-24T06:54:26;4.40;;;2.57;;
11847;SDS011;5983;49.966;8.052;2022-08-24T06:56:54;5.50;;;2.73;;
11847;SDS011;5983;49.966;8.052;2022-08-24T06:59:22;7.53;;;2.80;;
11847;SDS011;5983;49.966;8.052;2022-08-24T07:01:51;3.43;;;2.40;;
11847;SDS011;5983;49.966;8.052;2022-08-24T07:04:19;7.63;;;2.77;;
11847;SDS011;5983;49.966;8.052;2022-08-24T07:06:47;6.10;;;2.50;;
11847;SDS011;5983;49.966;8.052;2022-08-24T07:09:14;6.07;;;2.40;;
11847;SDS011;5983;49.966;8.052;2022-08-24T07:11:43;7.13;;;2.20;;
11847;SDS011;5983;49.966;8.052;2022-08-24T07:14:12;7.80;;;2.70;;
11847;SDS011;5983;49.966;8.052;2022-08-24T07:16:39;5.23;;;2.80;;
11847;SDS011;5983;49.966;8.052;2022-08-24T07:19:06;4.67;;;2.13;;
11847;SDS011;5983;49.966;8.052;2022-08-24T07:21:33;6.70;;;2.70;;
11847;SDS011;5983;49.966;8.052;2022-08-24T07:24:01;3.80;;;2.10;;
11847;SDS011;5983;49.966;8.052;2022-08-24T07:26:29;3.73;;;2.30;;
11847;SDS011;5983;49.966;8.052;2022-08-24T07:28:59;5.10;;;1.80;;
11847;SDS011;5983;49.966;8.052;2022-08-24T07:31:30;5.00;;;2.00;;
11847;SDS011;5983;49.966;8.052;2022-08-24T07:33:57;3.63;;;2.07;;
11847;SDS011;5983;49.966;8.052;2022-08-24T07:36:25;4.40;;;1.80;;
11847;SDS011;5983;49.966;8.052;2022-08-24T07:38:53;3.80;;;2.10;;
11847;SDS011;5983;49.966;8.052;2022-08-24T07:41:21;3.50;;;2.00;;
11847;SDS011;5983;49.966;8.052;2022-08-24T07:43:51;3.40;;;2.10;;
11847;SDS011;5983;49.966;8.052;2022-08-24T07:46:19;8.70;;;2.17;;
11847;SDS011;5983;49.966;8.052;2022-08-24T07:48:47;4.60;;;1.80;;
11847;SDS011;5983;49.966;8.052;2022-08-24T07:51:15;5.70;;;1.60;;
11847;SDS011;5983;49.966;8.052;2022-08-24T07:53:44;1.47;;;1.37;;
11847;SDS011;5983;49.966;8.052;2022-08-24T07:56:11;8.53;;;1.80;;
11847;SDS011;5983;49.966;8.052;2022-08-24T07:58:39;4.40;;;1.57;;
11847;SDS011;5983;49.966;8.052;2022-08-24T08:01:06;3.40;;;1.43;;
11847;SDS011;5983;49.966;8.052;2022-08-24T08:03:34;5.97;;;1.50;;
11847;SDS011;5983;49.966;8.052;2022-08-24T08:06:02;1.90;;;1.13;;
11847;SDS011;5983;49.966;8.052;2022-08-24T08:08:33;1.90;;;1.30;;
11847;SDS011;5983;49.966;8.052;2022-08-24T08:11:02;2.07;;;1.23;;
11847;SDS011;5983;49.966;8.052;2022-08-24T08:13:31;3.83;;;1.40;;
11847;SDS011;5983;49.966;8.052;2022-08-24T08:15:58;2.83;;;1.27;;
11847;SDS011;5983;49.966;8.052;2022-08-24T08:18:26;4.07;;;1.30;;
11847;SDS011;5983;49.966;8.052;2022-08-24T08:20:55;2.17;;;1.47;;
11847;SDS011;5983;49.966;8.052;2022-08-24T08:23:22;3.53;;;1.30;;
11847;SDS011;5983;49.966;8.052;2022-08-24T08:26:11;5.57;;;1.40;;
11847;SDS011;5983;49.966;8.052;2022-08-24T08:28:40;5.53;;;1.40;;
11847;SDS011;5983;49.966;8.052;2022-08-24T08:31:08;1.53;;;1.10;;
11847;SDS011;5983;49.966;8.052;2022-08-24T08:33:35;6.60;;;1.37;;
11847;SDS011;5983;49.966;8.052;2022-08-24T08:36:04;5.07;;;1.43;;
11847;SDS011;5983;49.966;8.052;2022-08-24T08:38:35;1.40;;;1.30;;
11847;SDS011;5983;49.966;8.052;2022-08-24T08:41:09;2.57;;;1.23;;
11847;SDS011;5983;49.966;8.052;2022-08-24T08:44:10;6.23;;;1.70;;
11847;SDS011;5983;49.966;8.052;2022-08-24T08:46:52;3.30;;;1.50;;
11847;SDS011;5983;49.966;8.052;2022-08-24T08:52:45;4.13;;;2.17;;
11847;SDS011;5983;49.966;8.052;2022-08-24T08:55:38;3.93;;;1.90;;
11847;SDS011;5983;49.966;8.052;2022-08-24T08:58:15;7.93;;;1.77;;
11847;SDS011;5983;49.966;8.052;2022-08-24T09:01:14;4.23;;;1.30;;
11847;SDS011;5983;49.966;8.052;2022-08-24T09:04:01;1.50;;;1.20;;
11847;SDS011;5983;49.966;8.052;2022-08-24T09:06:43;6.20;;;1.40;;
11847;SDS011;5983;49.966;8.052;2022-08-24T09:09:47;1.80;;;1.30;;
11847;SDS011;5983;49.966;8.052;2022-08-24T09:12:37;5.83;;;1.70;;
11847;SDS011;5983;49.966;8.052;2022-08-24T09:15:32;2.77;;;1.70;;
11847;SDS011;5983;49.966;8.052;2022-08-24T09:18:38;6.60;;;1.60;;
11847;SDS011;5983;49.966;8.052;2022-08-24T09:21:34;5.17;;;1.23;;
11847;SDS011;5983;49.966;8.052;2022-08-24T09:24:24;2.23;;;1.40;;
11847;SDS011;5983;49.966;8.052;2022-08-24T09:27:48;4.20;;;1.40;;
11847;SDS011;5983;49.966;8.052;2022-08-24T09:30:30;1.93;;;1.37;;
11847;SDS011;5983;49.966;8.052;2022-08-24T09:33:25;3.60;;;1.20;;
11847;SDS011;5983;49.966;8.052;2022-08-24T09:36:06;1.97;;;1.40;;
11847;SDS011;5983;49.966;8.052;2022-08-24T09:41:47;4.00;;;1.40;;
11847;SDS011;5983;49.966;8.052;2022-08-24T09:44:51;8.67;;;1.40;;
11847;SDS011;5983;49.966;8.052;2022-08-24T09:51:16;3.47;;;1.40;;
11847;SDS011;5983;49.966;8.052;2022-08-24T09:57:20;2.17;;;1.60;;
11847;SDS011;5983;49.966;8.052;2022-08-24T10:00:04;4.23;;;1.60;;
11847;SDS011;5983;49.966;8.052;2022-08-24T10:02:45;2.80;;;1.43;;
11847;SDS011;5983;49.966;8.052;2022-08-24T10:05:30;4.93;;;1.50;;
11847;SDS011;5983;49.966;8.052;2022-08-24T10:08:27;2.77;;;1.43;;
11847;SDS011;5983;49.966;8.052;2022-08-24T10:11:20;2.80;;;1.80;;
11847;SDS011;5983;49.966;8.052;2022-08-24T10:14:05;5.60;;;2.20;;
11847;SDS011;5983;49.966;8.052;2022-08-24T10:16:43;7.83;;;1.83;;
11847;SDS011;5983;49.966;8.052;2022-08-24T10:19:34;13.47;;;2.10;;
11847;SDS011;5983;49.966;8.052;2022-08-24T10:22:22;4.73;;;1.70;;
11847;SDS011;5983;49.966;8.052;2022-08-24T10:25:18;4.80;;;1.60;;
11847;SDS011;5983;49.966;8.052;2022-08-24T10:28:00;4.40;;;1.57;;
11847;SDS011;5983;49.966;8.052;2022-08-24T10:31:04;8.20;;;1.47;;
11847;SDS011;5983;49.966;8.052;2022-08-24T10:33:35;4.57;;;1.37;;
11847;SDS011;5983;49.966;8.052;2022-08-24T10:36:25;2.57;;;1.70;;
11847;SDS011;5983;49.966;8.052;2022-08-24T10:39:15;5.23;;;1.67;;
11847;SDS011;5983;49.966;8.052;2022-08-24T10:42:31;7.90;;;1.80;;
11847;SDS011;5983;49.966;8.052;2022-08-24T10:46:00;3.27;;;1.77;;
11847;SDS011;5983;49.966;8.052;2022-08-24T10:55:40;6.87;;;1.80;;
11847;SDS011;5983;49.966;8.052;2022-08-24T11:01:23;9.40;;;1.97;;
11847;SDS011;5983;49.966;8.052;2022-08-24T11:04:00;3.50;;;1.57;;
11847;SDS011;5983;49.966;8.052;2022-08-24T11:06:34;5.70;;;1.73;;
11847;SDS011;5983;49.966;8.052;2022-08-24T11:09:06;6.20;;;1.57;;
11847;SDS011;5983;49.966;8.052;2022-08-24T11:11:38;4.60;;;1.70;;
11847;SDS011;5983;49.966;8.052;2022-08-24T11:14:09;4.87;;;1.63;;
11847;SDS011;5983;49.966;8.052;2022-08-24T11:16:52;7.77;;;1.87;;
11847;SDS011;5983;49.966;8.052;2022-08-24T11:19:40;4.73;;;1.50;;
11847;SDS011;5983;49.966;8.052;2022-08-24T11:22:20;6.07;;;1.60;;
11847;SDS011;5983;49.966;8.052;2022-08-24T11:25:01;3.27;;;1.37;;
11847;SDS011;5983;49.966;8.052;2022-08-24T11:27:36;7.27;;;1.90;;
11847;SDS011;5983;49.966;8.052;2022-08-24T11:30:09;5.23;;;1.43;;
11847;SDS011;5983;49.966;8.052;2022-08-24T11:32:50;6.67;;;1.70;;
11847;SDS011;5983;49.966;8.052;2022-08-24T11:35:22;4.27;;;1.57;;
11847;SDS011;5983;49.966;8.052;2022-08-24T11:37:53;4.70;;;1.63;;
11847;SDS011;5983;49.966;8.052;2022-08-24T11:40:25;6.50;;;2.00;;
11847;SDS011;5983;49.966;8.052;2022-08-24T11:43:02;3.00;;;1.40;;
11847;SDS011;5983;49.966;8.052;2022-08-24T11:45:42;3.00;;;1.63;;
11847;SDS011;5983;49.966;8.052;2022-08-24T11:48:31;4.67;;;1.53;;
11847;SDS011;5983;49.966;8.052;2022-08-24T11:51:11;5.40;;;1.50;;
11847;SDS011;5983;49.966;8.052;2022-08-24T11:53:54;4.80;;;1.50;;
11847;SDS011;5983;49.966;8.052;2022-08-24T11:56:30;4.53;;;1.43;;
11847;SDS011;5983;49.966;8.052;2022-08-24T11:59:11;5.80;;;1.80;;
11847;SDS011;5983;49.966;8.052;2022-08-24T12:01:53;1.87;;;1.50;;
11847;SDS011;5983;49.966;8.052;2022-08-24T12:04:48;4.63;;;1.70;;
11847;SDS011;5983;49.966;8.052;2022-08-24T12:07:28;2.90;;;1.50;;
11847;SDS011;5983;49.966;8.052;2022-08-24T12:10:20;4.90;;;1.73;;
11847;SDS011;5983;49.966;8.052;2022-08-24T12:12:58;3.63;;;1.70;;
11847;SDS011;5983;49.966;8.052;2022-08-24T12:15:36;2.67;;;1.40;;
11847;SDS011;5983;49.966;8.052;2022-08-24T12:18:18;2.33;;;1.70;;
11847;SDS011;5983;49.966;8.052;2022-08-24T12:20:56;5.60;;;1.87;;
11847;SDS011;5983;49.966;8.052;2022-08-24T12:23:25;2.63;;;1.50;;
11847;SDS011;5983;49.966;8.052;2022-08-24T12:26:03;3.23;;;1.73;;
11847;SDS011;5983;49.966;8.052;2022-08-24T12:28:39;4.37;;;1.90;;
11847;SDS011;5983;49.966;8.052;2022-08-24T12:31:15;2.73;;;1.83;;
11847;SDS011;5983;49.966;8.052;2022-08-24T12:33:50;2.47;;;1.60;;
11847;SDS011;5983;49.966;8.052;2022-08-24T12:36:24;5.23;;;1.57;;
11847;SDS011;5983;49.966;8.052;2022-08-24T12:39:06;3.00;;;1.40;;
11847;SDS011;5983;49.966;8.052;2022-08-24T12:41:40;2.43;;;1.40;;
11847;SDS011;5983;49.966;8.052;2022-08-24T12:44:25;3.87;;;1.90;;
11847;SDS011;5983;49.966;8.052;2022-08-24T12:47:03;3.67;;;1.60;;
11847;SDS011;5983;49.966;8.052;2022-08-24T12:49:31;3.13;;;1.70;;
11847;SDS011;5983;49.966;8.052;2022-08-24T12:52:11;3.57;;;1.73;;
11847;SDS011;5983;49.966;8.052;2022-08-24T12:55:10;3.33;;;1.60;;
11847;SDS011;5983;49.966;8.052;2022-08-24T12:58:34;3.67;;;1.73;;
11847;SDS011;5983;49.966;8.052;2022-08-24T13:01:27;13.37;;;2.03;;
11847;SDS011;5983;49.966;8.052;2022-08-24T13:04:07;2.53;;;2.07;;
11847;SDS011;5983;49.966;8.052;2022-08-24T13:06:45;4.67;;;2.00;;
11847;SDS011;5983;49.966;8.052;2022-08-24T13:09:27;4.03;;;1.60;;
11847;SDS011;5983;49.966;8.052;2022-08-24T13:12:45;4.10;;;1.67;;
11847;SDS011;5983;49.966;8.052;2022-08-24T13:15:26;2.53;;;1.70;;
11847;SDS011;5983;49.966;8.052;2022-08-24T13:18:45;4.10;;;1.60;;
11847;SDS011;5983;49.966;8.052;2022-08-24T13:21:37;1.77;;;1.50;;
11847;SDS011;5983;49.966;8.052;2022-08-24T13:33:45;3.73;;;1.70;;
11847;SDS011;5983;49.966;8.052;2022-08-24T13:39:34;2.87;;;2.00;;
11847;SDS011;5983;49.966;8.052;2022-08-24T13:42:18;5.80;;;1.63;;
11847;SDS011;5983;49.966;8.052;2022-08-24T13:45:23;3.30;;;1.60;;
11847;SDS011;5983;49.966;8.052;2022-08-24T13:48:06;3.47;;;1.57;;
11847;SDS011;5983;49.966;8.052;2022-08-24T13:54:09;6.17;;;1.73;;
11847;SDS011;5983;49.966;8.052;2022-08-24T14:00:11;3.83;;;1.50;;
11847;SDS011;5983;49.966;8.052;2022-08-24T14:09:16;1.87;;;1.53;;
11847;SDS011;5983;49.966;8.052;2022-08-24T14:12:16;4.13;;;1.70;;
11847;SDS011;5983;49.966;8.052;2022-08-24T14:15:10;6.70;;;1.80;;
11847;SDS011;5983;49.966;8.052;2022-08-24T14:17:49;1.90;;;1.70;;
11847;SDS011;5983;49.966;8.052;2022-08-24T14:20:32;2.80;;;1.60;;
11847;SDS011;5983;49.966;8.052;2022-08-24T14:23:43;5.60;;;2.00;;
11847;SDS011;5983;49.966;8.052;2022-08-24T14:29:39;4.30;;;1.33;;
11847;SDS011;5983;49.966;8.052;2022-08-24T14:35:24;2.23;;;1.60;;
11847;SDS011;5983;49.966;8.052;2022-08-24T14:41:20;1.90;;;1.50;;
11847;SDS011;5983;49.966;8.052;2022-08-24T14:47:24;7.83;;;1.73;;
11847;SDS011;5983;49.966;8.052;2022-08-24T14:50:11;3.77;;;1.53;;
11847;SDS011;5983;49.966;8.052;2022-08-24T14:52:58;5.83;;;1.53;;
11847;SDS011;5983;49.966;8.052;2022-08-24T14:55:51;2.53;;;1.87;;
11847;SDS011;5983;49.966;8.052;2022-08-24T14:58:35;2.07;;;1.60;;
11847;SDS011;5983;49.966;8.052;2022-08-24T15:01:37;5.23;;;1.57;;
11847;SDS011;5983;49.966;8.052;2022-08-24T15:07:23;2.50;;;1.40;;
11847;SDS011;5983;49.966;8.052;2022-08-24T15:09:55;1.83;;;1.37;;
11847;SDS011;5983;49.966;8.052;2022-08-24T15:12:29;2.13;;;1.37;;
11847;SDS011;5983;49.966;8.052;2022-08-24T15:15:08;2.50;;;1.73;;
11847;SDS011;5983;49.966;8.052;2022-08-24T15:17:53;3.00;;;1.50;;
11847;SDS011;5983;49.966;8.052;2022-08-24T15:20:38;7.37;;;1.70;;
11847;SDS011;5983;49.966;8.052;2022-08-24T15:23:24;1.83;;;1.30;;
11847;SDS011;5983;49.966;8.052;2022-08-24T15:26:14;3.30;;;1.47;;
11847;SDS011;5983;49.966;8.052;2022-08-24T15:28:53;2.87;;;1.73;;
11847;SDS011;5983;49.966;8.052;2022-08-24T15:31:21;2.43;;;1.63;;
11847;SDS011;5983;49.966;8.052;2022-08-24T15:33:54;2.80;;;1.70;;
11847;SDS011;5983;49.966;8.052;2022-08-24T15:36:25;2.17;;;1.50;;
11847;SDS011;5983;49.966;8.052;2022-08-24T15:38:54;2.00;;;1.40;;
11847;SDS011;5983;49.966;8.052;2022-08-24T15:41:23;4.73;;;1.63;;
11847;SDS011;5983;49.966;8.052;2022-08-24T15:43:56;2.93;;;1.53;;
11847;SDS011;5983;49.966;8.052;2022-08-24T15:46:27;3.37;;;1.60;;
11847;SDS011;5983;49.966;8.052;2022-08-24T15:49:03;4.30;;;1.73;;
11847;SDS011;5983;49.966;8.052;2022-08-24T15:51:45;3.43;;;1.67;;
11847;SDS011;5983;49.966;8.052;2022-08-24T15:54:26;3.83;;;2.10;;
11847;SDS011;5983;49.966;8.052;2022-08-24T15:56:59;2.43;;;1.80;;
11847;SDS011;5983;49.966;8.052;2022-08-24T15:59:30;4.33;;;1.70;;
11847;SDS011;5983;49.966;8.052;2022-08-24T16:02:21;3.13;;;2.00;;
11847;SDS011;5983;49.966;8.052;2022-08-24T16:04:57;5.93;;;1.80;;
11847;SDS011;5983;49.966;8.052;2022-08-24T16:10:35;2.40;;;1.60;;
11847;SDS011;5983;49.966;8.052;2022-08-24T16:13:07;2.03;;;1.73;;
11847;SDS011;5983;49.966;8.052;2022-08-24T16:15:54;2.67;;;1.73;;
11847;SDS011;5983;49.966;8.052;2022-08-24T16:18:39;2.63;;;1.60;;
11847;SDS011;5983;49.966;8.052;2022-08-24T16:21:14;4.03;;;1.50;;
11847;SDS011;5983;49.966;8.052;2022-08-24T16:23:52;4.00;;;1.43;;
11847;SDS011;5983;49.966;8.052;2022-08-24T16:26:26;4.20;;;1.50;;
11847;SDS011;5983;49.966;8.052;2022-08-24T16:28:56;2.97;;;1.47;;
11847;SDS011;5983;49.966;8.052;2022-08-24T16:34:21;2.57;;;1.90;;
11847;SDS011;5983;49.966;8.052;2022-08-24T16:36:55;2.07;;;1.50;;
11847;SDS011;5983;49.966;8.052;2022-08-24T16:39:23;1.50;;;1.40;;
11847;SDS011;5983;49.966;8.052;2022-08-24T16:41:51;3.50;;;1.70;;
11847;SDS011;5983;49.966;8.052;2022-08-24T16:44:22;3.90;;;1.60;;
11847;SDS011;5983;49.966;8.052;2022-08-24T16:46:51;2.10;;;1.50;;
11847;SDS011;5983;49.966;8.052;2022-08-24T16:49:18;2.60;;;1.50;;
11847;SDS011;5983;49.966;8.052;2022-08-24T16:51:45;1.80;;;1.47;;
11847;SDS011;5983;49.966;8.052;2022-08-24T16:54:13;6.07;;;1.60;;
11847;SDS011;5983;49.966;8.052;2022-08-24T16:56:40;2.13;;;1.60;;
11847;SDS011;5983;49.966;8.052;2022-08-24T16:59:07;5.40;;;1.60;;